Terminal Aerodrome Forecast
Issued by NWS North Platte, NE

Home | Current Version | Previous Version | Text Only | Print | Product List | Glossary Off
Versions: 1 2 3 4 5 6 7 8 9 10 11 12 13 14 15

000
FTUS43 KLBF 190500
TAFVTN
TAF
KVTN 190520Z 1906/2006 19008KT P6SM BKN011
     FM190800 20010KT P6SM OVC011
     FM191200 21012KT P6SM SCT011
     FM191400 23015KT P6SM SKC=

USA.gov is the U.S. government's official web portal to all federal, state and local government web resources and services.